createdAt,value
2018-11-04T00:00:13.940Z,80.79
2018-11-04T00:01:13.923Z,80.69
2018-11-04T00:02:13.975Z,80.88
2018-11-04T00:03:13.929Z,80.88
2018-11-04T00:04:13.914Z,81.46
2018-11-04T00:05:13.900Z,81.36
2018-11-04T00:06:13.891Z,81.36
2018-11-04T00:07:13.892Z,81.49
2018-11-04T00:08:13.901Z,81.49
2018-11-04T00:09:13.879Z,81.40
2018-11-04T00:10:13.874Z,80.88
2018-11-04T00:11:13.865Z,81.21
2018-11-04T00:12:13.859Z,81.26
2018-11-04T00:13:13.953Z,80.98
2018-11-04T00:14:13.850Z,80.88
2018-11-04T00:15:13.840Z,81.12
2018-11-04T00:16:13.837Z,81.46
2018-11-04T00:17:13.836Z,81.40
2018-11-04T00:18:13.825Z,80.92
2018-11-04T00:19:13.822Z,81.21
2018-11-04T00:20:13.843Z,81.40
2018-11-04T00:21:13.810Z,81.68
2018-11-04T00:22:13.815Z,81.49
2018-11-04T00:23:13.798Z,81.88
2018-11-04T00:24:13.868Z,82.17
2018-11-04T00:25:13.796Z,81.68
2018-11-04T00:26:13.780Z,81.97
2018-11-04T00:27:13.825Z,81.88
2018-11-04T00:28:13.770Z,81.49
2018-11-04T00:29:13.773Z,81.88
2018-11-04T00:30:13.754Z,81.21
2018-11-04T00:31:13.752Z,81.02
2018-11-04T00:32:13.753Z,81.40
2018-11-04T00:33:13.743Z,81.59
2018-11-04T00:34:13.736Z,81.59
2018-11-04T00:35:13.730Z,81.49
2018-11-04T00:36:13.733Z,82.26
2018-11-04T00:37:13.721Z,82.45
2018-11-04T00:38:13.723Z,82.35
2018-11-04T00:39:13.706Z,82.26
2018-11-04T00:40:13.727Z,82.73
2018-11-04T00:41:13.695Z,82.54
2018-11-04T00:42:13.689Z,82.26
2018-11-04T00:43:13.691Z,82.45
2018-11-04T00:44:13.678Z,82.73
2018-11-04T00:45:13.738Z,82.64
2018-11-04T00:46:13.689Z,82.17
2018-11-04T00:47:13.673Z,82.54
2018-11-04T00:48:13.658Z,82.26
2018-11-04T00:49:13.645Z,82.45
2018-11-04T00:50:13.646Z,82.26
2018-11-04T00:51:13.642Z,81.74
2018-11-04T00:52:13.634Z,81.68
2018-11-04T00:53:13.628Z,81.55
2018-11-04T00:54:13.623Z,81.12
2018-11-04T00:55:13.620Z,80.12
2018-11-04T00:56:13.611Z,79.83
2018-11-04T00:57:13.604Z,80.41
2018-11-04T00:58:13.598Z,80.22
2018-11-04T00:59:13.595Z,80.22
2018-11-04T01:00:13.589Z,80.16
2018-11-04T01:01:13.587Z,79.93
2018-11-04T01:02:13.577Z,80.35
2018-11-04T01:03:13.569Z,80.07
2018-11-04T01:04:13.565Z,80.31
2018-11-04T01:05:13.557Z,80.44
2018-11-04T01:06:13.554Z,80.16
2018-11-04T01:07:13.547Z,80.16
2018-11-04T01:08:13.544Z,80.22
2018-11-04T01:09:13.681Z,80.26
2018-11-04T01:10:13.528Z,80.35
2018-11-04T01:11:13.522Z,80.64
2018-11-04T01:12:13.520Z,80.73
2018-11-04T01:13:13.512Z,80.83
2018-11-04T01:14:13.509Z,80.44
2018-11-04T01:15:13.502Z,80.44
2018-11-04T01:16:13.498Z,80.07
2018-11-04T01:17:13.964Z,80.16
2018-11-04T01:18:13.480Z,80.22
2018-11-04T01:19:13.478Z,79.83
2018-11-04T01:20:13.473Z,80.02
2018-11-04T01:21:13.511Z,79.55
2018-11-04T01:22:13.459Z,79.55
2018-11-04T01:23:13.500Z,79.49
2018-11-04T01:24:13.459Z,79.40
2018-11-04T01:25:13.445Z,79.55
2018-11-04T01:26:13.436Z,78.64
2018-11-04T01:27:13.434Z,78.69
2018-11-04T01:28:13.425Z,79.17
2018-11-04T01:29:13.432Z,79.27
2018-11-04T01:30:13.491Z,79.59
2018-11-04T01:31:13.409Z,78.98
2018-11-04T01:32:13.404Z,79.17
2018-11-04T01:33:13.494Z,78.88
2018-11-04T01:34:13.394Z,78.22
2018-11-04T01:35:13.396Z,77.64
2018-11-04T01:36:13.378Z,77.55
2018-11-04T01:37:13.365Z,77.07
2018-11-04T01:38:13.367Z,77.07
2018-11-04T01:39:13.360Z,76.88
2018-11-04T01:40:13.357Z,77.17
2018-11-04T01:41:13.345Z,76.88
2018-11-04T01:42:13.341Z,76.12
2018-11-04T01:43:13.337Z,76.88
2018-11-04T01:44:13.334Z,76.50
2018-11-04T01:45:13.323Z,76.88
2018-11-04T01:46:13.322Z,76.40
2018-11-04T01:47:13.314Z,76.21
2018-11-04T01:48:13.314Z,76.59
2018-11-04T01:49:13.304Z,76.50
2018-11-04T01:50:13.294Z,76.21
2018-11-04T01:51:13.289Z,76.12
2018-11-04T01:52:13.280Z,75.64
2018-11-04T01:53:13.282Z,75.64
2018-11-04T01:54:13.269Z,74.98
2018-11-04T01:55:13.265Z,75.55
2018-11-04T01:56:13.259Z,75.26
2018-11-04T01:57:13.253Z,75.36
2018-11-04T01:58:13.249Z,75.16
2018-11-04T01:59:13.240Z,75.55
2018-11-04T02:00:13.241Z,75.64
2018-11-04T02:01:13.228Z,75.45
2018-11-04T02:02:13.223Z,75.26
2018-11-04T02:03:13.218Z,75.45
2018-11-04T02:04:13.213Z,75.74
2018-11-04T02:05:13.204Z,75.16
2018-11-04T02:06:13.206Z,75.74
2018-11-04T02:07:13.193Z,75.36
2018-11-04T02:08:13.188Z,75.26
2018-11-04T02:09:13.179Z,75.36
2018-11-04T02:10:13.174Z,75.26
2018-11-04T02:11:13.169Z,74.79
2018-11-04T02:12:13.163Z,74.50
2018-11-04T02:13:13.160Z,75.36
2018-11-04T02:14:13.149Z,75.36
2018-11-04T02:15:13.144Z,75.26
2018-11-04T02:16:13.141Z,75.26
2018-11-04T02:17:13.132Z,74.98
2018-11-04T02:18:13.127Z,74.98
2018-11-04T02:19:13.124Z,74.98
2018-11-04T02:20:13.124Z,76.03
2018-11-04T02:21:13.108Z,75.74
2018-11-04T02:22:13.104Z,76.50
2018-11-04T02:23:13.097Z,75.74
2018-11-04T02:24:13.095Z,76.31
2018-11-04T02:25:13.084Z,75.45
2018-11-04T02:26:13.077Z,75.36
2018-11-04T02:27:13.077Z,76.12
2018-11-04T02:28:13.070Z,75.84
2018-11-04T02:29:13.067Z,75.84
2018-11-04T02:30:13.060Z,75.36
2018-11-04T02:31:13.050Z,75.26
2018-11-04T02:32:13.049Z,75.74
2018-11-04T02:33:13.040Z,75.55
2018-11-04T02:34:13.037Z,74.98
2018-11-04T02:35:13.029Z,75.26
2018-11-04T02:36:13.037Z,75.36
2018-11-04T02:37:13.018Z,74.79
2018-11-04T02:38:13.010Z,74.79
2018-11-04T02:39:13.005Z,74.02
2018-11-04T02:40:13.003Z,74.40
2018-11-04T02:41:12.996Z,74.40
2018-11-04T02:42:12.989Z,74.69
2018-11-04T02:43:12.982Z,74.40
2018-11-04T02:44:12.980Z,74.50
2018-11-04T02:45:12.968Z,73.83
2018-11-04T02:46:12.963Z,74.21
2018-11-04T02:47:12.958Z,73.83
2018-11-04T02:48:12.953Z,73.45
2018-11-04T02:49:13.118Z,73.45
2018-11-04T02:50:12.954Z,73.36
2018-11-04T02:51:12.939Z,73.36
2018-11-04T02:52:12.932Z,73.55
2018-11-04T02:53:12.925Z,73.68
2018-11-04T02:54:12.918Z,73.96
2018-11-04T02:55:12.912Z,74.44
2018-11-04T02:56:12.907Z,74.92
2018-11-04T02:57:12.901Z,73.77
2018-11-04T02:58:12.893Z,74.73
2018-11-04T02:59:12.890Z,74.63
2018-11-04T03:00:12.894Z,75.78
2018-11-04T03:01:12.879Z,74.82
2018-11-04T03:02:12.872Z,74.25
2018-11-04T03:03:12.869Z,74.54
2018-11-04T03:04:12.868Z,73.96
2018-11-04T03:05:12.874Z,73.83
2018-11-04T03:06:12.851Z,73.36
2018-11-04T03:07:12.843Z,73.68
2018-11-04T03:08:12.837Z,73.45
2018-11-04T03:09:12.830Z,73.68
2018-11-04T03:10:12.827Z,73.55
2018-11-04T03:11:12.821Z,73.26
2018-11-04T03:12:12.816Z,73.11
2018-11-04T03:13:12.807Z,73.49
2018-11-04T03:14:12.803Z,73.55
2018-11-04T03:15:12.794Z,73.74
2018-11-04T03:16:12.792Z,73.36
2018-11-04T03:17:12.837Z,72.02
2018-11-04T03:18:12.782Z,72.41
2018-11-04T03:19:12.778Z,72.31
2018-11-04T03:20:13.540Z,72.21
2018-11-04T03:21:12.766Z,72.12
2018-11-04T03:22:12.757Z,71.07
2018-11-04T03:23:12.798Z,70.78
2018-11-04T03:24:12.747Z,70.78
2018-11-04T03:25:12.743Z,70.59
2018-11-04T03:26:12.730Z,70.97
2018-11-04T03:27:12.730Z,70.97
2018-11-04T03:28:12.723Z,70.59
2018-11-04T03:29:12.716Z,70.59
2018-11-04T03:30:12.710Z,70.50
2018-11-04T03:31:12.716Z,70.59
2018-11-04T03:32:12.699Z,70.12
2018-11-04T03:33:12.696Z,69.74
2018-11-04T03:34:12.688Z,69.35
2018-11-04T03:35:12.682Z,68.98
2018-11-04T03:36:12.675Z,68.88
2018-11-04T03:37:12.673Z,68.78
2018-11-04T03:38:12.663Z,67.64
2018-11-04T03:39:12.658Z,67.26
2018-11-04T03:40:12.674Z,67.35
2018-11-04T03:41:12.644Z,67.26
2018-11-04T03:42:12.639Z,66.50
2018-11-04T03:43:12.633Z,67.16
2018-11-04T03:44:12.627Z,66.78
2018-11-04T03:45:12.621Z,66.97
2018-11-04T03:46:12.618Z,66.59
2018-11-04T03:47:12.612Z,66.50
2018-11-04T03:48:12.605Z,66.50
2018-11-04T03:49:12.595Z,67.26
2018-11-04T03:50:12.591Z,66.88
2018-11-04T03:51:12.585Z,66.97
2018-11-04T03:52:12.581Z,66.88
2018-11-04T03:53:12.571Z,66.69
2018-11-04T03:54:12.566Z,67.16
2018-11-04T03:55:12.559Z,66.50
2018-11-04T03:56:12.553Z,67.07
2018-11-04T03:57:12.556Z,66.50
2018-11-04T03:58:12.538Z,66.59
2018-11-04T03:59:12.538Z,66.97
2018-11-04T04:00:12.532Z,66.21
2018-11-04T04:01:12.525Z,65.92
2018-11-04T04:02:12.518Z,66.97
2018-11-04T04:03:12.509Z,66.69
2018-11-04T04:04:12.505Z,67.16
2018-11-04T04:05:12.500Z,66.88
2018-11-04T04:06:12.493Z,66.40
2018-11-04T04:07:12.485Z,66.88
2018-11-04T04:08:12.483Z,66.50
2018-11-04T04:09:12.473Z,66.11
2018-11-04T04:10:12.470Z,65.36
2018-11-04T04:11:12.463Z,65.16
2018-11-04T04:12:12.459Z,64.59
2018-11-04T04:13:12.450Z,64.59
2018-11-04T04:14:12.444Z,63.92
2018-11-04T04:15:12.438Z,63.45
2018-11-04T04:16:12.435Z,64.21
2018-11-04T04:17:12.426Z,63.64
2018-11-04T04:18:36.405Z,64.21
2018-11-04T04:19:12.414Z,64.31
2018-11-04T04:20:12.407Z,64.50
2018-11-04T04:21:12.403Z,64.78
2018-11-04T04:22:12.396Z,63.92
2018-11-04T04:23:12.389Z,64.02
2018-11-04T04:24:12.386Z,63.54
2018-11-04T04:25:12.376Z,63.07
2018-11-04T04:26:12.377Z,62.88
2018-11-04T04:27:12.366Z,62.88
2018-11-04T04:28:12.357Z,62.59
2018-11-04T04:29:12.353Z,63.83
2018-11-04T04:30:12.360Z,63.26
2018-11-04T04:31:12.345Z,62.78
2018-11-04T04:32:12.335Z,63.07
2018-11-04T04:33:12.324Z,62.88
2018-11-04T04:34:12.325Z,62.97
2018-11-04T04:35:12.320Z,62.97
2018-11-04T04:36:12.311Z,62.97
2018-11-04T04:37:12.302Z,62.78
2018-11-04T04:38:12.299Z,63.07
2018-11-04T04:39:12.292Z,62.78
2018-11-04T04:40:12.286Z,62.97
2018-11-04T04:41:12.281Z,63.35
2018-11-04T04:42:12.271Z,63.26
2018-11-04T04:43:12.274Z,63.73
2018-11-04T04:44:12.265Z,64.12
2018-11-04T04:45:12.257Z,64.02
2018-11-04T04:46:12.251Z,63.17
2018-11-04T04:47:12.247Z,62.88
2018-11-04T04:48:12.236Z,62.97
2018-11-04T04:49:12.231Z,62.88
2018-11-04T04:50:12.223Z,62.97
2018-11-04T04:51:12.223Z,62.97
2018-11-04T04:52:12.677Z,62.12
2018-11-04T04:53:12.212Z,61.35
2018-11-04T04:54:12.201Z,62.02
2018-11-04T04:55:12.196Z,61.83
2018-11-04T04:56:12.191Z,61.93
2018-11-04T04:57:12.188Z,61.73
2018-11-04T04:58:12.178Z,62.30
2018-11-04T04:59:12.171Z,62.40
2018-11-04T05:00:12.165Z,61.45
2018-11-04T05:01:12.161Z,62.02
2018-11-04T05:02:12.155Z,61.73
2018-11-04T05:03:12.148Z,61.93
2018-11-04T05:04:12.141Z,61.45
2018-11-04T05:05:12.145Z,61.54
2018-11-04T05:06:12.138Z,61.25
2018-11-04T05:07:12.124Z,60.30
2018-11-04T05:08:12.119Z,60.49
2018-11-04T05:09:12.111Z,60.40
2018-11-04T05:10:12.110Z,60.49
2018-11-04T05:11:12.099Z,59.74
2018-11-04T05:12:12.096Z,58.40
2018-11-04T05:13:12.089Z,58.30
2018-11-04T05:14:12.078Z,57.64
2018-11-04T05:15:12.075Z,57.82
2018-11-04T05:16:12.070Z,58.21
2018-11-04T05:17:12.065Z,57.54
2018-11-04T05:18:12.056Z,57.35
2018-11-04T05:19:12.052Z,57.64
2018-11-04T05:20:12.044Z,57.45
2018-11-04T05:21:12.036Z,57.54
2018-11-04T05:22:12.032Z,57.73
2018-11-04T05:23:12.020Z,57.07
2018-11-04T05:24:12.018Z,57.16
2018-11-04T05:25:12.013Z,56.02
2018-11-04T05:26:12.006Z,56.40
2018-11-04T05:27:12.000Z,56.97
2018-11-04T05:28:11.996Z,56.21
2018-11-04T05:29:11.987Z,56.30
2018-11-04T05:30:11.983Z,56.30
2018-11-04T05:31:11.976Z,56.78
2018-11-04T05:32:11.972Z,57.35
2018-11-04T05:33:11.963Z,57.35
2018-11-04T05:34:11.959Z,56.78
2018-11-04T05:35:11.953Z,57.35
2018-11-04T05:36:11.946Z,56.87
2018-11-04T05:37:11.940Z,56.59
2018-11-04T05:38:11.937Z,56.21
2018-11-04T05:39:11.927Z,56.11
2018-11-04T05:40:11.922Z,55.83
2018-11-04T05:41:11.914Z,56.59
2018-11-04T05:42:11.910Z,56.11
2018-11-04T05:43:11.901Z,57.07
2018-11-04T05:44:11.897Z,57.07
2018-11-04T05:45:11.890Z,57.54
2018-11-04T05:46:11.887Z,56.87
2018-11-04T05:47:11.878Z,56.78
2018-11-04T05:48:11.873Z,56.40
2018-11-04T05:49:11.864Z,55.73
2018-11-04T05:50:11.861Z,54.88
2018-11-04T05:51:11.854Z,54.30
2018-11-04T05:52:11.849Z,53.83
2018-11-04T05:53:11.842Z,53.16
2018-11-04T05:54:11.839Z,52.78
2018-11-04T05:55:11.830Z,52.68
2018-11-04T05:56:11.824Z,52.87
2018-11-04T05:57:11.817Z,53.06
2018-11-04T05:58:11.813Z,53.06
2018-11-04T05:59:11.804Z,52.59
2018-11-04T06:00:11.803Z,52.68
2018-11-04T06:01:11.793Z,52.68
2018-11-04T06:02:11.786Z,53.16
2018-11-04T06:03:11.781Z,52.11
2018-11-04T06:04:11.777Z,52.30
2018-11-04T06:05:11.768Z,51.54
2018-11-04T06:06:11.761Z,51.64
2018-11-04T06:07:11.756Z,51.16
2018-11-04T06:08:11.749Z,51.06
2018-11-04T06:09:11.744Z,50.78
2018-11-04T06:10:11.737Z,50.68
2018-11-04T06:11:11.731Z,50.11
2018-11-04T06:12:11.727Z,50.30
2018-11-04T06:13:11.719Z,49.82
2018-11-04T06:14:11.724Z,49.73
2018-11-04T06:15:11.705Z,49.63
2018-11-04T06:16:11.695Z,49.63
2018-11-04T06:17:11.690Z,50.01
2018-11-04T06:18:11.686Z,49.54
2018-11-04T06:19:11.680Z,50.01
2018-11-04T06:20:11.673Z,50.87
2018-11-04T06:21:11.671Z,50.87
2018-11-04T06:22:11.662Z,50.87
2018-11-04T06:23:11.657Z,50.97
2018-11-04T06:24:11.837Z,51.64
2018-11-04T06:25:11.641Z,51.54
2018-11-04T06:26:11.637Z,51.54
2018-11-04T06:27:11.633Z,51.64
2018-11-04T06:28:11.625Z,52.78
2018-11-04T06:29:11.621Z,53.16
2018-11-04T06:30:11.612Z,53.06
2018-11-04T06:31:11.607Z,53.25
2018-11-04T06:32:11.601Z,52.87
2018-11-04T06:33:11.593Z,53.35
2018-11-04T06:34:11.588Z,53.35
2018-11-04T06:35:11.585Z,53.25
2018-11-04T06:36:11.577Z,53.64
2018-11-04T06:37:11.568Z,52.97
2018-11-04T06:38:11.565Z,54.11
2018-11-04T06:39:11.558Z,53.25
2018-11-04T06:40:11.552Z,54.39
2018-11-04T06:41:11.630Z,53.35
2018-11-04T06:42:11.539Z,53.54
2018-11-04T06:43:11.534Z,53.44
2018-11-04T06:44:11.526Z,53.35
2018-11-04T06:45:11.522Z,53.44
2018-11-04T06:46:11.514Z,54.39
2018-11-04T06:47:11.587Z,53.64
2018-11-04T06:48:11.503Z,53.25
2018-11-04T06:49:11.498Z,52.68
2018-11-04T06:50:11.494Z,52.49
2018-11-04T06:51:11.484Z,52.87
2018-11-04T06:52:11.476Z,52.68
2018-11-04T06:53:11.472Z,53.54
2018-11-04T06:54:11.467Z,54.21
2018-11-04T06:55:12.217Z,54.21
2018-11-04T06:56:11.456Z,54.11
2018-11-04T06:57:11.448Z,54.90
2018-11-04T06:58:11.451Z,55.47
2018-11-04T06:59:11.438Z,55.44
2018-11-04T07:00:11.544Z,55.95
2018-11-04T07:01:11.426Z,55.95
2018-11-04T07:02:11.418Z,56.14
2018-11-04T07:03:11.417Z,57.95
2018-11-04T07:04:11.410Z,57.48
2018-11-04T07:05:11.408Z,57.48
2018-11-04T07:06:11.400Z,58.24
2018-11-04T07:07:11.393Z,58.72
2018-11-04T07:08:11.386Z,59.38
2018-11-04T07:09:11.409Z,59.67
2018-11-04T07:10:11.375Z,60.05
2018-11-04T07:11:11.369Z,60.05
2018-11-04T07:12:11.361Z,60.72
2018-11-04T07:13:11.359Z,60.62
2018-11-04T07:14:11.353Z,61.38
2018-11-04T07:15:11.348Z,61.57
2018-11-04T07:16:11.341Z,61.48
2018-11-04T07:17:11.335Z,61.86
2018-11-04T07:18:11.330Z,61.38
2018-11-04T07:19:11.337Z,61.38
2018-11-04T07:20:11.319Z,60.62
2018-11-04T07:21:11.312Z,60.43
2018-11-04T07:22:11.331Z,61.67
2018-11-04T07:23:11.303Z,61.48
2018-11-04T07:24:11.298Z,61.57
2018-11-04T07:25:11.294Z,61.67
2018-11-04T07:26:11.285Z,62.43
2018-11-04T07:27:11.282Z,62.34
2018-11-04T07:28:11.268Z,62.91
2018-11-04T07:29:11.271Z,63.00
2018-11-04T07:30:11.263Z,62.81
2018-11-04T07:31:11.252Z,62.72
2018-11-04T07:32:11.352Z,62.62
2018-11-04T07:33:11.246Z,63.00
2018-11-04T07:34:11.240Z,62.52
2018-11-04T07:35:11.240Z,62.24
2018-11-04T07:36:11.230Z,62.52
2018-11-04T07:37:11.224Z,62.72
2018-11-04T07:38:11.218Z,63.48
2018-11-04T07:39:11.213Z,64.05
2018-11-04T07:40:11.210Z,63.67
2018-11-04T07:41:11.202Z,64.15
2018-11-04T07:42:11.194Z,64.15
2018-11-04T07:43:11.193Z,64.15
2018-11-04T07:44:11.236Z,63.39
2018-11-04T07:45:11.176Z,63.76
2018-11-04T07:46:11.247Z,64.91
2018-11-04T07:47:11.171Z,64.05
2018-11-04T07:48:11.161Z,63.48
2018-11-04T07:49:11.156Z,62.81
2018-11-04T07:50:11.200Z,62.81
2018-11-04T07:51:11.144Z,63.00
2018-11-04T07:52:11.142Z,62.91
2018-11-04T07:53:11.132Z,62.52
2018-11-04T07:54:11.123Z,62.24
2018-11-04T07:55:11.122Z,62.05
2018-11-04T07:56:11.128Z,61.19
2018-11-04T07:57:11.109Z,61.10
2018-11-04T07:58:11.104Z,59.86
2018-11-04T07:59:11.099Z,60.52
2018-11-04T08:00:11.093Z,60.43
2018-11-04T08:01:11.088Z,59.95
2018-11-04T08:02:11.075Z,60.33
2018-11-04T08:03:11.081Z,59.95
2018-11-04T08:04:11.209Z,59.95
2018-11-04T08:05:11.060Z,59.19
2018-11-04T08:06:11.063Z,59.28
2018-11-04T08:07:11.059Z,59.67
2018-11-04T08:08:11.048Z,60.52
2018-11-04T08:09:11.043Z,61.00
2018-11-04T08:10:11.035Z,61.57
2018-11-04T08:11:11.031Z,60.52
2018-11-04T08:12:11.024Z,60.62
2018-11-04T08:13:11.022Z,60.33
2018-11-04T08:14:11.015Z,61.29
2018-11-04T08:15:11.008Z,61.19
2018-11-04T08:16:11.000Z,61.10
2018-11-04T08:17:11.010Z,61.57
2018-11-04T08:18:10.990Z,61.76
2018-11-04T08:19:10.982Z,62.81
2018-11-04T08:20:10.977Z,63.96
2018-11-04T08:21:11.014Z,63.20
2018-11-04T08:22:10.967Z,63.20
2018-11-04T08:23:10.962Z,63.86
2018-11-04T08:24:10.963Z,63.48
2018-11-04T08:25:10.950Z,63.29
2018-11-04T08:26:10.944Z,65.00
2018-11-04T08:27:11.375Z,65.29
2018-11-04T08:28:12.433Z,65.20
2018-11-04T08:29:10.928Z,64.81
2018-11-04T08:30:10.923Z,64.53
2018-11-04T08:31:10.917Z,64.53
2018-11-04T08:32:10.907Z,65.10
2018-11-04T08:33:10.918Z,65.96
2018-11-04T08:34:10.980Z,66.24
2018-11-04T08:35:10.895Z,65.39
2018-11-04T08:36:10.889Z,65.00
2018-11-04T08:37:10.882Z,65.00
2018-11-04T08:38:10.879Z,66.05
2018-11-04T08:39:10.872Z,65.67
2018-11-04T08:40:11.094Z,65.20
2018-11-04T08:41:10.859Z,65.10
2018-11-04T08:42:10.853Z,64.91
2018-11-04T08:43:10.880Z,64.15
2018-11-04T08:44:10.845Z,64.53
2018-11-04T08:45:10.839Z,65.20
2018-11-04T08:46:10.841Z,64.91
2018-11-04T08:47:10.828Z,65.48
2018-11-04T08:48:10.822Z,65.29
2018-11-04T08:49:10.815Z,65.39
2018-11-04T08:50:10.813Z,66.53
2018-11-04T08:51:10.810Z,66.63
2018-11-04T08:52:10.799Z,66.72
2018-11-04T08:53:10.801Z,66.72
2018-11-04T08:54:10.791Z,66.63
2018-11-04T08:55:10.782Z,65.77
2018-11-04T08:56:10.777Z,66.44
2018-11-04T08:57:10.768Z,66.05
2018-11-04T08:58:10.764Z,66.85
2018-11-04T08:59:10.761Z,66.82
2018-11-04T09:00:10.885Z,66.75
2018-11-04T09:01:10.754Z,66.47
2018-11-04T09:02:10.744Z,66.72
2018-11-04T09:03:10.739Z,67.23
2018-11-04T09:04:10.733Z,67.52
2018-11-04T09:05:10.725Z,68.66
2018-11-04T09:06:10.722Z,67.90
2018-11-04T09:07:10.715Z,67.90
2018-11-04T09:08:10.711Z,67.99
2018-11-04T09:09:10.714Z,67.80
2018-11-04T09:10:10.699Z,67.80
2018-11-04T09:11:10.694Z,67.71
2018-11-04T09:12:10.688Z,67.80
2018-11-04T09:13:10.683Z,67.42
2018-11-04T09:14:10.700Z,70.38
2018-11-04T09:15:10.670Z,70.86
2018-11-04T09:16:10.666Z,70.28
2018-11-04T09:17:10.660Z,70.38
2018-11-04T09:18:10.657Z,70.47
2018-11-04T09:19:10.652Z,70.38
2018-11-04T09:20:10.646Z,70.76
2018-11-04T09:21:10.637Z,70.67
2018-11-04T09:22:10.652Z,70.67
2018-11-04T09:23:10.631Z,71.72
2018-11-04T09:24:10.623Z,71.14
2018-11-04T09:25:10.615Z,70.67
2018-11-04T09:26:10.612Z,71.04
2018-11-04T09:27:10.608Z,70.67
2018-11-04T09:28:10.603Z,70.57
2018-11-04T09:29:10.657Z,70.47
2018-11-04T09:30:10.591Z,70.86
2018-11-04T09:31:10.587Z,70.28
2018-11-04T09:32:10.580Z,70.67
2018-11-04T09:33:10.582Z,71.04
2018-11-04T09:34:10.597Z,70.38
2018-11-04T09:35:10.805Z,70.76
2018-11-04T09:36:10.706Z,70.19
2018-11-04T09:37:10.553Z,70.28
2018-11-04T09:38:10.548Z,69.90
2018-11-04T09:39:10.537Z,70.38
2018-11-04T09:40:10.537Z,70.19
2018-11-04T09:41:10.531Z,70.57
2018-11-04T09:42:10.526Z,70.38
2018-11-04T09:43:10.521Z,70.95
2018-11-04T09:44:10.518Z,70.19
2018-11-04T09:45:10.532Z,70.86
2018-11-04T09:46:10.505Z,72.38
2018-11-04T09:47:10.524Z,72.86
2018-11-04T09:48:10.499Z,72.86
2018-11-04T09:49:10.493Z,72.57
2018-11-04T09:50:10.485Z,71.91
2018-11-04T09:51:10.479Z,72.28
2018-11-04T09:52:10.476Z,72.96
2018-11-04T09:53:10.472Z,73.33
2018-11-04T09:54:10.468Z,73.52
2018-11-04T09:55:10.461Z,73.43
2018-11-04T09:56:10.457Z,73.33
2018-11-04T09:57:10.451Z,73.52
2018-11-04T09:58:10.446Z,74.32
2018-11-04T09:59:10.534Z,74.80
2018-11-04T10:00:10.440Z,74.61
2018-11-04T10:01:10.437Z,74.71
2018-11-04T10:02:10.427Z,75.09
2018-11-04T10:03:10.421Z,76.14
2018-11-04T10:04:10.419Z,75.76
2018-11-04T10:05:10.412Z,75.57
2018-11-04T10:06:10.408Z,75.66
2018-11-04T10:07:10.474Z,77.19
2018-11-04T10:08:10.400Z,76.71
2018-11-04T10:09:10.394Z,76.23
2018-11-04T10:10:10.389Z,75.85
2018-11-04T10:11:10.385Z,76.04
2018-11-04T10:12:10.381Z,75.85
2018-11-04T10:13:10.411Z,75.66
2018-11-04T10:14:10.376Z,75.18
2018-11-04T10:15:10.370Z,75.95
2018-11-04T10:16:10.420Z,76.23
2018-11-04T10:17:10.394Z,77.09
2018-11-04T10:18:10.351Z,76.81
2018-11-04T10:19:10.594Z,77.00
2018-11-04T10:20:10.628Z,76.71
2018-11-04T10:21:10.704Z,77.95
2018-11-04T10:22:10.334Z,77.19
2018-11-04T10:23:10.329Z,77.86
2018-11-04T10:24:10.323Z,77.19
2018-11-04T10:25:10.318Z,77.47
2018-11-04T10:26:10.314Z,77.38
2018-11-04T10:27:10.309Z,78.05
2018-11-04T10:28:10.305Z,78.14
2018-11-04T10:29:10.299Z,77.47
2018-11-04T10:30:10.968Z,78.23
2018-11-04T10:31:10.326Z,79.19
2018-11-04T10:32:10.302Z,79.28
2018-11-04T10:33:10.284Z,79.38
2018-11-04T10:34:10.279Z,79.43
2018-11-04T10:35:10.281Z,79.19
2018-11-04T10:36:10.326Z,79.33
2018-11-04T10:37:10.342Z,79.10
2018-11-04T10:38:10.261Z,79.28
2018-11-04T10:39:10.258Z,79.38
2018-11-04T10:40:10.254Z,79.57
2018-11-04T10:41:10.247Z,79.28
2018-11-04T10:42:10.246Z,79.52
2018-11-04T10:43:10.239Z,79.57
2018-11-04T10:44:10.235Z,80.28
2018-11-04T10:45:10.231Z,80.85
2018-11-04T10:46:10.226Z,80.66
2018-11-04T10:47:10.223Z,80.76
2018-11-04T10:48:10.217Z,80.66
2018-11-04T10:49:10.257Z,80.47
2018-11-04T10:50:10.217Z,80.38
2018-11-04T10:51:10.205Z,80.47
2018-11-04T10:52:10.199Z,80.85
2018-11-04T10:53:10.195Z,80.19
2018-11-04T10:54:10.188Z,79.99
2018-11-04T10:55:10.183Z,79.61
2018-11-04T10:56:10.182Z,79.99
2018-11-04T10:57:10.177Z,80.76
2018-11-04T10:58:10.173Z,80.28
2018-11-04T10:59:10.170Z,80.76
2018-11-04T11:00:10.166Z,81.24
2018-11-04T11:01:10.161Z,82.09
2018-11-04T11:02:10.157Z,82.19
2018-11-04T11:03:10.158Z,81.71
2018-11-04T11:04:10.151Z,82.00
2018-11-04T11:05:10.151Z,81.33
2018-11-04T11:06:10.139Z,81.24
2018-11-04T11:07:10.135Z,81.24
2018-11-04T11:08:10.131Z,81.71
2018-11-04T11:09:10.127Z,81.33
2018-11-04T11:10:10.127Z,81.24
2018-11-04T11:11:10.232Z,80.28
2018-11-04T11:12:10.116Z,80.19
2018-11-04T11:13:10.111Z,80.47
2018-11-04T11:14:10.106Z,79.61
2018-11-04T11:15:10.103Z,79.43
2018-11-04T11:16:10.097Z,78.47
2018-11-04T11:17:10.091Z,78.66
2018-11-04T11:18:10.087Z,79.43
2018-11-04T11:19:10.083Z,79.52
2018-11-04T11:20:10.078Z,78.56
2018-11-04T11:21:10.075Z,78.28
2018-11-04T11:22:10.070Z,78.56
2018-11-04T11:23:10.128Z,78.94
2018-11-04T11:24:10.060Z,79.14
2018-11-04T11:25:10.054Z,79.43
2018-11-04T11:26:10.050Z,78.85
2018-11-04T11:27:10.047Z,79.52
2018-11-04T11:28:10.044Z,78.75
2018-11-04T11:29:10.038Z,78.56
2018-11-04T11:30:10.133Z,78.28
2018-11-04T11:31:10.030Z,78.66
2018-11-04T11:32:10.025Z,78.75
2018-11-04T11:33:10.023Z,78.94
2018-11-04T11:34:10.016Z,78.09
2018-11-04T11:35:10.022Z,78.09
2018-11-04T11:36:10.007Z,77.99
2018-11-04T11:37:10.006Z,78.09
2018-11-04T11:38:09.997Z,78.37
2018-11-04T11:39:09.992Z,78.28
2018-11-04T11:40:09.991Z,77.99
2018-11-04T11:41:09.985Z,78.18
2018-11-04T11:42:09.977Z,78.18
2018-11-04T11:43:09.974Z,79.43
2018-11-04T11:44:09.972Z,79.04
2018-11-04T11:45:09.966Z,79.61
2018-11-04T11:46:09.959Z,80.85
2018-11-04T11:47:09.957Z,80.47
2018-11-04T11:48:09.957Z,80.38
2018-11-04T11:49:09.947Z,81.71
2018-11-04T11:50:09.944Z,81.43
2018-11-04T11:51:09.946Z,81.14
2018-11-04T11:52:09.936Z,80.76
2018-11-04T11:53:09.933Z,79.90
2018-11-04T11:54:09.924Z,80.47
2018-11-04T11:55:09.922Z,80.95
2018-11-04T11:56:09.920Z,80.66
2018-11-04T11:57:09.914Z,80.76
2018-11-04T11:58:09.908Z,81.43
2018-11-04T11:59:09.952Z,80.95
2018-11-04T12:00:09.899Z,81.52
2018-11-04T12:01:09.896Z,81.33
2018-11-04T12:02:10.150Z,80.57
2018-11-04T12:03:09.887Z,80.85
2018-11-04T12:04:09.883Z,81.71
2018-11-04T12:05:09.877Z,81.71
2018-11-04T12:06:09.871Z,82.00
2018-11-04T12:07:09.870Z,81.52
2018-11-04T12:08:09.868Z,81.33
2018-11-04T12:09:09.874Z,81.43
2018-11-04T12:10:09.857Z,82.00
2018-11-04T12:11:09.850Z,81.90
2018-11-04T12:12:09.849Z,82.09
2018-11-04T12:13:09.842Z,82.00
2018-11-04T12:14:09.837Z,82.09
2018-11-04T12:15:09.835Z,82.29
2018-11-04T12:16:09.833Z,81.81
2018-11-04T12:17:09.822Z,81.52
2018-11-04T12:18:09.822Z,81.33
2018-11-04T12:19:09.819Z,82.14
2018-11-04T12:20:09.824Z,82.23
2018-11-04T12:21:09.807Z,82.71
2018-11-04T12:22:09.803Z,83.18
2018-11-04T12:23:09.801Z,82.76
2018-11-04T12:24:09.796Z,83.28
2018-11-04T12:25:09.791Z,83.09
2018-11-04T12:26:09.786Z,83.28
2018-11-04T12:27:09.783Z,83.18
2018-11-04T12:28:09.778Z,83.86
2018-11-04T12:29:09.772Z,84.33
2018-11-04T12:30:09.770Z,84.33
2018-11-04T12:31:09.767Z,85.10
2018-11-04T12:32:09.762Z,84.81
2018-11-04T12:33:10.468Z,83.86
2018-11-04T12:34:09.753Z,83.57
2018-11-04T12:35:09.803Z,83.47
2018-11-04T12:36:09.747Z,83.76
2018-11-04T12:37:09.742Z,83.47
2018-11-04T12:38:09.738Z,83.67
2018-11-04T12:39:09.736Z,83.86
2018-11-04T12:40:09.732Z,83.76
2018-11-04T12:41:09.725Z,83.95
2018-11-04T12:42:09.720Z,84.14
2018-11-04T12:43:09.712Z,83.57
2018-11-04T12:44:09.715Z,84.05
2018-11-04T12:45:09.710Z,84.62
2018-11-04T12:46:09.703Z,84.23
2018-11-04T12:47:09.711Z,84.43
2018-11-04T12:48:09.699Z,83.95
2018-11-04T12:49:09.694Z,84.14
2018-11-04T12:50:09.689Z,84.52
2018-11-04T12:51:09.686Z,84.81
2018-11-04T12:52:09.704Z,84.91